Metar Cercanos

 

LEPA - Palma De Mallorc, Spain
Distance from station: ONO 38km
Actualización: 21/10/2018 03:00
Few Clouds
Few Clouds
 Viento del E
Viento: E 6 km/h
Temperatura: 18°C
Rocío: 18°C
Humedad: 100%
Barómetro: 1021 hPa
Clouds: Few Clouds
Visibility: 10 km
Cloud details: Few Clouds 732 m
2018/10/21 01:00 LEPA 210100Z 10003KT 9999 FEW024 18/18 Q1021 NOSIG
LEMH - Mahon/Menorca Is, Spain
Distance from station: ENE 105km
Actualización: 21/10/2018 03:00
Despejado
Despejado
 Viento del NE
Viento: NE 7 km/h
Temperatura: 19°C
Rocío: 18°C
Humedad: 94%
Barómetro: 1021 hPa
Clouds: Despejado
Visibility: 10 km
2018/10/21 01:00 LEMH 210100Z AUTO 04004KT 9999 NCD 19/18 Q1021
 
LEIB - Ibiza/Es Codola, Spain
Distance from station: OSO 165km
Actualización: 21/10/2018 03:00
Parcialmente nuboso
Parcialmente nuboso
 Viento del ENE
Viento: ENE 20 km/h
Temperatura: 22°C
Rocío: 19°C
Humedad: 83%
Barómetro: 1020 hPa
Clouds: Parcialmente nuboso
Visibility: 10 km
Cloud details: Parcialmente nuboso 366 m
Parcialmente nuboso 610 m
2018/10/21 01:00 LEIB 210100Z 06011KT 040V100 9999 SCT012 SCT020 22/19 Q1020 NOSIG
LEBL - Barcelona Airpor, Spain
Distance from station: NNO 225km
Actualización: 21/10/2018 03:00
Few Clouds
Few Clouds
 Viento del NNO
Viento: NNO 9 km/h
Temperatura: 17°C
Rocío: 15°C
Humedad: 88%
Barómetro: 1022 hPa
Clouds: Few Clouds
Visibility: 9 km
Cloud details: Few Clouds 1524 m
2018/10/21 01:00 LEBL 210100Z 34005KT 9000 FEW050 17/15 Q1022 NOSIG
 
LEVC - Valencia (civ/Mi, Spain
Distance from station: NO 188km
Actualización: 21/10/2018 03:00
Muy nuboso
Muy nuboso
 Viento del NNO
Viento: NNO 6 km/h
Temperatura: 19°C
Rocío: 17°C
Humedad: 88%
Barómetro: 1022 hPa
Clouds: Muy nuboso
Visibility: 10 km
Cloud details: Muy nuboso 610 m
Muy nuboso 914 m
2018/10/21 01:00 LEVC 210100Z 33003KT 9999 BKN020 BKN030 19/17 Q1022 NOSIG
LEGE - Gerona/Costa Bra, Spain
Distance from station: N 276km
Actualización: 21/10/2018 03:00
Parcialmente nuboso
Parcialmente nuboso
 Viento del NO
Viento: NO 4 km/h
Temperatura: 14°C
Rocío: 14°C
Humedad: 100%
Barómetro: 1023 hPa
Clouds: Parcialmente nuboso
Visibility: 9 km
2018/10/21 01:00 LEGE 210100Z 32002KT 9000 NSC 14/14 Q1023
 
LEAL - Alicante/El Alte, Spain
Distance from station: OSO 344km
Actualización: 21/10/2018 03:00
Few Clouds
Few Clouds
 Viento del ENE
Viento: ENE 31 km/h
Temperatura: 22°C
Rocío: 18°C
Humedad: 78%
Barómetro: 1019 hPa
Clouds: Few Clouds
Visibility: 10 km
Cloud details: Few Clouds 1067 m
2018/10/21 01:00 LEAL 210100Z 07017KT 9999 FEW035 22/18 Q1019 NOSIG
LEAM - Almeria Airport, Spain
Distance from station: SSO 56km
Actualización: 21/10/2018 03:00
Despejado
Despejado
 Viento del NNE
Viento: NNE 20 km/h
Temperatura: 23°C
Rocío: 17°C
Humedad: 69%
Barómetro: 1016 hPa
Clouds: Despejado
Visibility: 10 km
2018/10/21 01:00 LEAM 210100Z AUTO 03011KT 350V060 9999 NCD 23/17 Q1016
 
LEZG - Zaragoza (mil/Ci, Spain
Distance from station: NO 431km
Actualización: 21/10/2018 03:00
Few Clouds
Few Clouds
 Viento del OSO
Viento: OSO 6 km/h
Temperatura: 15°C
Rocío: 14°C
Humedad: 94%
Barómetro: 1024 hPa
Clouds: Few Clouds
Visibility: 10 km
Cloud details: Few Clouds 914 m
2018/10/21 01:00 LEZG 210100Z 25003KT 9999 FEW030 15/14 Q1024
LEMD - Madrid/Barajas, Spain
Distance from station: ONO 234km
Actualización: 21/10/2018 03:00
Parcialmente nuboso
Parcialmente nuboso
 Viento del N
Viento: N 9 km/h
Temperatura: 15°C
Rocío: 14°C
Humedad: 94%
Barómetro: 1022 hPa
Clouds: Parcialmente nuboso
Visibility: 10 km
Cloud details: Few Clouds 305 m
Parcialmente nuboso 1219 m
2018/10/21 01:00 LEMD 210100Z 35005KT 310V020 9999 FEW010 SCT040 15/14 Q1022 RERA R88/29//95 NOSIG
 
LEGR - Granada Airport, Spain
Distance from station: OSO 62km
Actualización: 21/10/2018 03:00
Few Clouds
Few Clouds
 Viento del calm
Viento: Calma
Temperatura: 12°C
Rocío: 12°C
Humedad: 100%
Barómetro: 1018 hPa
Clouds: Few Clouds
Visibility: 10 km
Cloud details: Few Clouds 3048 m
2018/10/21 01:00 LEGR 210100Z AUTO 00000KT 9999 FEW100 12/12 Q1018
LEMG - Malaga (civ/Mil), Spain
Distance from station: OSO 227km
Actualización: 21/10/2018 03:00
Muy nuboso
Muy nuboso
 Viento del SE
Viento: SE 9 km/h
Temperatura: 21°C
Rocío: 19°C
Humedad: 88%
Barómetro: 1016 hPa
Clouds: Muy nuboso
Visibility: 10 km
Cloud details: Few Clouds 305 m
Parcialmente nuboso 610 m
Muy nuboso 1524 m
2018/10/21 01:00 LEMG 210100Z 13005KT 100V170 9999 FEW010 SCT020 BKN050 21/19 Q1016 NOSIG
 
LEZL - Sevilla (civ/Mil, Spain
Distance from station: S 318km
Actualización: 21/10/2018 03:00
Despejado
Despejado
 Viento del N
Viento: N 6 km/h
Temperatura: 16°C
Rocío: 15°C
Humedad: 94%
Barómetro: 1016 hPa
Resumen: Despejado
Visibility: greater than 10 km
2018/10/21 01:00 LEZL 210100Z AUTO 36003KT CAVOK 16/15 Q1016
LEVT - Vitoria, Spain
Distance from station: NO 226km
Actualización: 21/10/2018 03:00
Cubierto
Cubierto
 Viento del varies
Viento: varies 2 km/h
Temperatura: 14°C
Rocío: 13°C
Humedad: 94%
Barómetro: 1025 hPa
Clouds: Cubierto
Visibility: 8 km
Cloud details: Cubierto 213 m
2018/10/21 01:00 LEVT 210100Z VRB01KT 8000 OVC007 14/13 Q1025
 
LEBB - Bilbao/Sondica, Spain
Distance from station: NNO 235km
Actualización: 21/10/2018 03:00

 Viento del ESE
Viento: ESE 6 km/h
Visibility: 10 km
2018/10/21 01:00 LEBB 210100Z AUTO 11003KT 090V150 9999 3400 NCD 14/14 Q1024
LESO - San Sebastian/Fu, Spain
Distance from station: N 231km
Actualización: 21/10/2018 03:00
Mist, Cubierto
Mist, Cubierto
 Viento del varies
Viento: varies 4 km/h
Temperatura: 16°C
Rocío: 15°C
Humedad: 94%
Barómetro: 1024 hPa
Resumen: Mist
Clouds: Cubierto
Visibility: 3 km
Cloud details: Cubierto 30 m
2018/10/21 01:00 LESO 210100Z AUTO VRB02KT 2800 BR VV001 16/15 Q1024
 
LEVD - Valladolid(Mil/C, Spain
Distance from station: ONO 239km
Actualización: 20/10/2018 21:30
NOT Current
Despejado
Despejado
 Viento del E
Viento: E 24 km/h
Temperatura: 15°C
Rocío: 9°C
Humedad: 68%
Barómetro: 1022 hPa
Resumen: Despejado
Visibility: greater than 10 km
2018/10/20 19:30 LEVD 201930Z 08013KT 050V110 CAVOK 15/09 Q1022
LESA - Salamanca (civ/M, Spain
Distance from station: ONO 349km
Actualización: 21/10/2018 03:00
Despejado
Despejado
 Viento del E
Viento: E 19 km/h
Temperatura: 14°C
Rocío: 11°C
Humedad: 82%
Barómetro: 1022 hPa
Resumen: Despejado
Visibility: greater than 10 km
2018/10/21 01:00 LESA 210100Z AUTO 10010KT CAVOK 14/11 Q1022
 
LEXJ - Santander/Paraya, Spain
Distance from station: NNO 247km
Actualización: 21/10/2018 03:00
Mist, Parcialmente nuboso
Mist, Parcialmente nuboso
 Viento del S
Viento: S 2 km/h
Temperatura: 14°C
Rocío: 14°C
Humedad: 100%
Barómetro: 1024 hPa
Resumen: Mist
Clouds: Parcialmente nuboso
Visibility: 2 km
2018/10/21 01:00 LEXJ 210100Z AUTO 19001KT 1500 BR NSC 14/14 Q1024
LEAS - Asturias/Aviles, Spain
Distance from station: NO 214km
Actualización: 21/10/2018 03:00
Mist, Parcialmente nuboso
Mist, Parcialmente nuboso
 Viento del ESE
Viento: ESE 6 km/h
Temperatura: 14°C
Rocío: 14°C
Humedad: 100%
Barómetro: 1023 hPa
Resumen: Mist
Clouds: Parcialmente nuboso
Visibility: 2 km
Cloud details: Few Clouds 305 m
Parcialmente nuboso 610 m
2018/10/21 01:00 LEAS 210100Z 12003KT 080V170 2200 BR FEW010 SCT020 14/14 Q1023 TEMPO BKN010
 
LECO - La Coruna/Alvedr, Spain
Distance from station: ONO 222km
Actualización: 21/10/2018 03:00
Despejado
Despejado
 Viento del SSO
Viento: SSO 6 km/h
Temperatura: 14°C
Rocío: 12°C
Humedad: 88%
Barómetro: 1021 hPa
Clouds: Despejado
Visibility: 10 km
2018/10/21 01:00 LECO 210100Z AUTO 20003KT 9999 NCD 14/12 Q1021
LEVX - Vigo/Peinador, Spain
Distance from station: O 214km
Actualización: 21/10/2018 03:00
Despejado
Despejado
 Viento del ESE
Viento: ESE 17 km/h
Temperatura: 21°C
Rocío: 11°C
Humedad: 53%
Barómetro: 1019 hPa
Resumen: Despejado
Visibility: greater than 10 km
2018/10/21 01:00 LEVX 210100Z 12009KT 070V180 CAVOK 21/11 Q1019 NOSIG